aviador You're here:

YPEA Decoded Metar

PEARCE (AUS-AFB) in AUSTRALIA
Report Time2018-01-19 05:00:00
UTC Time2018-01-19 05:20:28
Flight Rules vfr VFR
Wind110° at 11 kt
W.Decomp.*RWY 05: 5.3 kt HW 9.6 kt RCW
RWY 18: 3.9 kt HW 10.3 kt LCW
W.Rank110° ranks 11
Current wind is above 110° avg. (8.9)
Visibility9999 m
Phenomena:N/A
Clouds:N/A
Expected CloudBase > 6,400 ft AGL from Temp-Dew spread
CeilingNone
Temp27°C (ISA +12)
Dew Point11°C (37% RH)
Heat Index26.7°C
AAT23.4°C
QNH1013 hPa
Density Alt1,759 ft
Elevation161 ft
Report Wrong Elevation
Raw Report
METAR YPEA 190500Z AUTO 11011KT 060V140 9999 // NCD 27/11 Q1013=

Extra information for YPEA:More info

Metar Taf Metar & Taf Last 4 Metars F.Rules Stats Wind Profile Meteogram Temp Stats Airport Information Weather charts Add Link Nearby VenuesMetar ALERT Operation Metar Decoded Social comments